Carmen de Patagones, Argentina
Current Conditions -  °F | °C
As of 2:00 AM on Tuesday 21 Oct 2014 (Local Time) from SAZN Reporting Station
Clear Clear  
Wind Chill: 64°   Ceiling: Unl
Heat Index: 64°   Visibility: 6mi
Dew Point: 45°   Wind: 5mph
Humidity: 49%   Direction: 270°W
Pressure: 29.91"   Gusts: NA
Location:  40.8°S, 62.98°W
Report Text: SAZN 210500Z 27004KT CAVOK 18/07 Q1013
Loading
Personal Weather Stations






























Interactive Weather Map
Tropical Storm Tracking
New forecast layout! Learn more

10-Day Weather Forecast

Advertisements
Track Severe Weather on mobile